createdAt,value
2019-03-08T00:01:09.179Z,9.40
2019-03-08T00:05:07.811Z,4.10
2019-03-08T00:09:09.029Z,7.33
2019-03-08T00:13:10.492Z,7.17
2019-03-08T00:17:11.337Z,4.63
2019-03-08T00:21:09.946Z,9.23
2019-03-08T00:25:11.433Z,7.30
2019-03-08T00:29:10.005Z,11.60
2019-03-08T00:33:08.891Z,6.57
2019-03-08T00:37:10.381Z,8.03
2019-03-08T00:41:09.272Z,8.87
2019-03-08T00:45:19.778Z,10.40
2019-03-08T00:49:18.420Z,7.77
2019-03-08T00:53:17.077Z,5.17
2019-03-08T00:57:15.656Z,6.30
2019-03-08T01:01:14.360Z,11.17
2019-03-08T01:05:14.085Z,9.70
2019-03-08T01:09:12.731Z,9.20
2019-03-08T01:13:11.358Z,8.40
2019-03-08T01:17:10.009Z,10.37
2019-03-08T01:21:08.661Z,8.37
2019-03-08T01:25:09.065Z,11.40
2019-03-08T01:29:08.098Z,10.23
2019-03-08T01:33:09.883Z,8.10
2019-03-08T01:37:08.469Z,9.53
2019-03-08T01:41:07.380Z,9.10
2019-03-08T01:45:07.993Z,5.77
2019-03-08T01:49:08.191Z,12.77
2019-03-08T01:53:09.405Z,10.17
2019-03-08T01:57:07.969Z,4.77
2019-03-08T02:01:11.780Z,9.73
2019-03-08T02:05:10.475Z,6.47
2019-03-08T02:09:09.080Z,14.70
2019-03-08T02:13:07.972Z,9.03
2019-03-08T02:17:06.950Z,11.03
2019-03-08T02:21:06.971Z,9.60
2019-03-08T02:25:06.286Z,14.20
2019-03-08T02:29:17.652Z,9.17
2019-03-08T02:33:16.245Z,12.27
2019-03-08T02:37:14.809Z,11.50
2019-03-08T02:41:13.468Z,12.37
2019-03-08T02:45:15.026Z,14.73
2019-03-08T02:49:13.729Z,9.97
2019-03-08T02:53:13.570Z,11.83
2019-03-08T02:57:12.084Z,12.03
2019-03-08T03:01:10.762Z,8.87
2019-03-08T03:05:09.771Z,10.83
2019-03-08T03:09:08.794Z,14.23
2019-03-08T03:13:07.643Z,8.37
2019-03-08T03:17:06.302Z,8.03
2019-03-08T03:21:04.962Z,5.83
2019-03-08T03:25:08.364Z,3.57
2019-03-08T03:29:06.935Z,4.43
2019-03-08T03:33:05.590Z,7.33
2019-03-08T03:37:04.180Z,3.80
2019-03-08T03:41:02.733Z,6.43
2019-03-08T03:45:01.839Z,3.43
2019-03-08T03:49:00.435Z,8.07
2019-03-08T03:52:59.194Z,9.63
2019-03-08T03:57:02.312Z,9.40
2019-03-08T04:01:02.842Z,10.33
2019-03-08T04:05:03.000Z,9.93
2019-03-08T04:09:01.996Z,12.93
2019-03-08T04:13:01.040Z,10.50
2019-03-08T04:16:59.821Z,8.90
2019-03-08T04:20:58.382Z,7.37
2019-03-08T04:24:56.971Z,6.10
2019-03-08T04:28:55.637Z,11.63
2019-03-08T04:32:56.822Z,11.93
2019-03-08T04:36:57.210Z,7.60
2019-03-08T04:40:55.783Z,13.23
2019-03-08T04:44:54.711Z,12.50
2019-03-08T04:48:53.304Z,9.17
2019-03-08T04:52:53.065Z,9.40
2019-03-08T04:56:58.659Z,13.97
2019-03-08T05:00:57.375Z,13.93
2019-03-08T05:04:55.912Z,11.93
2019-03-08T05:08:54.662Z,13.33
2019-03-08T05:12:53.207Z,11.93
2019-03-08T05:16:51.785Z,12.63
2019-03-08T05:20:50.511Z,10.87
2019-03-08T05:24:49.095Z,15.37
2019-03-08T05:28:47.997Z,13.27
2019-03-08T05:32:46.593Z,19.93
2019-03-08T05:36:45.154Z,14.53
2019-03-08T05:40:43.768Z,15.40
2019-03-08T05:44:42.318Z,13.17
2019-03-08T05:48:40.910Z,18.30
2019-03-08T05:52:39.502Z,13.23
2019-03-08T05:56:38.154Z,17.23
2019-03-08T06:00:36.853Z,13.77
2019-03-08T06:04:35.432Z,18.17
2019-03-08T06:08:33.990Z,18.97
2019-03-08T06:12:33.005Z,25.73
2019-03-08T06:16:31.584Z,17.67
2019-03-08T06:20:30.280Z,15.57
2019-03-08T06:24:29.362Z,15.67
2019-03-08T06:28:27.945Z,25.67
2019-03-08T06:32:26.515Z,22.73
2019-03-08T06:36:25.617Z,16.30
2019-03-08T06:40:24.255Z,21.00
2019-03-08T06:44:22.867Z,22.03
2019-03-08T06:48:21.425Z,25.50
2019-03-08T06:52:20.019Z,22.80
2019-03-08T06:56:28.116Z,24.90
2019-03-08T07:00:35.345Z,27.23
2019-03-08T07:04:33.954Z,30.17
2019-03-08T07:08:32.643Z,24.57
2019-03-08T07:12:31.189Z,15.70
2019-03-08T07:16:30.077Z,26.87
2019-03-08T07:20:30.311Z,25.80
2019-03-08T07:24:34.115Z,21.60
2019-03-08T07:28:48.899Z,30.93
2019-03-08T07:32:54.110Z,27.93
2019-03-08T07:37:13.780Z,24.07
2019-03-08T07:41:30.208Z,24.03
2019-03-08T07:45:46.607Z,27.07
2019-03-08T07:50:05.151Z,34.50
2019-03-08T07:54:08.715Z,29.47
2019-03-08T07:58:11.646Z,18.97
2019-03-08T08:02:17.330Z,22.33
2019-03-08T08:06:20.379Z,34.50
2019-03-08T08:10:23.825Z,32.77
2019-03-08T08:14:26.935Z,36.67
2019-03-08T08:18:27.514Z,31.97
2019-03-08T08:22:44.031Z,28.77
2019-03-08T08:26:46.885Z,35.47
2019-03-08T08:30:59.432Z,26.20
2019-03-08T08:35:30.010Z,21.87
2019-03-08T08:39:35.274Z,20.83
2019-03-08T08:43:51.608Z,26.47
2019-03-08T08:48:04.083Z,34.60
2019-03-08T08:52:15.979Z,25.43
2019-03-08T08:56:19.351Z,20.77
2019-03-08T09:00:23.047Z,28.77
2019-03-08T09:04:28.940Z,27.57
2019-03-08T09:08:32.276Z,24.83
2019-03-08T09:12:52.028Z,25.87
2019-03-08T09:16:58.689Z,19.87
2019-03-08T09:21:15.218Z,22.77
2019-03-08T09:25:25.313Z,24.00
2019-03-08T09:29:41.523Z,22.30
2019-03-08T09:33:47.985Z,29.63
2019-03-08T09:37:48.208Z,28.43
2019-03-08T09:42:00.448Z,10.03
2019-03-08T09:46:00.670Z,27.80
2019-03-08T09:50:17.122Z,15.67
2019-03-08T09:54:18.287Z,13.97
2019-03-08T09:58:41.319Z,19.50
2019-03-08T10:02:44.484Z,17.77
2019-03-08T10:06:56.894Z,18.17
2019-03-08T10:11:15.681Z,21.27
2019-03-08T10:15:33.519Z,15.87
2019-03-08T10:19:36.529Z,26.57
2019-03-08T10:23:53.543Z,15.33
2019-03-08T10:28:12.065Z,16.30
2019-03-08T10:32:22.411Z,18.47
2019-03-08T10:36:31.894Z,15.67
2019-03-08T10:40:35.784Z,27.67
2019-03-08T10:44:39.383Z,10.47
2019-03-08T10:48:39.694Z,20.67
2019-03-08T10:52:40.571Z,21.53
2019-03-08T10:56:55.571Z,18.07
2019-03-08T11:01:14.211Z,15.20
2019-03-08T11:05:18.983Z,14.10
2019-03-08T11:09:26.495Z,9.07
2019-03-08T11:13:43.200Z,10.80
2019-03-08T11:17:51.257Z,15.33
2019-03-08T11:22:00.425Z,6.17
2019-03-08T11:26:06.392Z,9.77
2019-03-08T11:30:15.583Z,7.03
2019-03-08T11:34:18.654Z,12.93
2019-03-08T11:38:22.725Z,10.63
2019-03-08T11:42:26.593Z,6.37
2019-03-08T11:46:27.235Z,12.00
2019-03-08T11:50:27.847Z,17.50
2019-03-08T11:54:40.356Z,16.97
2019-03-08T11:58:51.458Z,12.27
2019-03-08T12:02:57.717Z,13.10
2019-03-08T12:07:01.080Z,21.07
2019-03-08T12:11:32.737Z,15.13
2019-03-08T12:15:51.230Z,20.83
2019-03-08T12:20:03.388Z,21.70
2019-03-08T12:24:06.599Z,14.27
2019-03-08T12:28:10.222Z,13.57
2019-03-08T12:32:16.949Z,16.17
2019-03-08T12:36:18.946Z,16.43
2019-03-08T12:40:22.301Z,16.30
2019-03-08T12:44:22.958Z,10.33
2019-03-08T12:48:39.253Z,14.10
2019-03-08T12:52:56.593Z,12.33
2019-03-08T12:56:56.797Z,10.63
2019-03-08T13:00:57.245Z,17.20
2019-03-08T13:05:03.845Z,11.30
2019-03-08T13:09:10.057Z,9.63
2019-03-08T13:13:08.956Z,10.67
2019-03-08T13:17:07.558Z,10.30
2019-03-08T13:21:06.762Z,8.17
2019-03-08T13:25:08.142Z,9.90
2019-03-08T13:29:07.133Z,9.27
2019-03-08T13:33:05.820Z,10.33
2019-03-08T13:37:06.120Z,8.40
2019-03-08T13:41:05.019Z,8.37
2019-03-08T13:45:05.436Z,16.70
2019-03-08T13:49:04.004Z,8.23
2019-03-08T13:53:07.283Z,11.23
2019-03-08T13:57:05.867Z,15.13
2019-03-08T14:01:05.060Z,12.57
2019-03-08T14:05:04.631Z,7.80
2019-03-08T14:09:04.795Z,12.83
2019-03-08T14:13:03.502Z,4.93
2019-03-08T14:17:02.182Z,8.30
2019-03-08T14:21:02.298Z,5.63
2019-03-08T14:25:00.964Z,10.77
2019-03-08T14:28:59.567Z,15.80
2019-03-08T14:33:01.566Z,9.47
2019-03-08T14:36:58.832Z,6.57
2019-03-08T14:40:59.139Z,13.77
2019-03-08T14:45:03.597Z,7.73
2019-03-08T14:49:02.176Z,5.73
2019-03-08T14:53:00.998Z,8.90
2019-03-08T14:56:59.990Z,7.07
2019-03-08T15:01:02.103Z,10.30
2019-03-08T15:04:58.830Z,7.67
2019-03-08T15:08:57.821Z,10.40
2019-03-08T15:12:56.904Z,10.77
2019-03-08T15:16:55.674Z,11.80
2019-03-08T15:20:54.773Z,9.20
2019-03-08T15:25:13.977Z,7.50
2019-03-08T15:29:13.641Z,10.27
2019-03-08T15:33:12.674Z,11.37
2019-03-08T15:37:11.280Z,9.20
2019-03-08T15:41:10.079Z,8.77
2019-03-08T15:45:11.374Z,6.63
2019-03-08T15:49:09.943Z,13.17
2019-03-08T15:53:08.689Z,8.67
2019-03-08T15:57:07.364Z,9.10
2019-03-08T16:01:09.082Z,7.00
2019-03-08T16:05:11.195Z,9.23
2019-03-08T16:09:10.026Z,5.37
2019-03-08T16:13:09.187Z,9.77
2019-03-08T16:17:08.185Z,7.97
2019-03-08T16:21:06.985Z,11.90
2019-03-08T16:25:09.214Z,5.10
2019-03-08T16:29:07.659Z,7.60
2019-03-08T16:33:22.608Z,13.10
2019-03-08T16:37:22.646Z,10.73
2019-03-08T16:41:28.204Z,9.77
2019-03-08T16:45:33.696Z,4.77
2019-03-08T16:49:48.083Z,5.50
2019-03-08T16:53:47.481Z,6.80
2019-03-08T16:58:04.240Z,10.47
2019-03-08T17:02:11.177Z,14.43
2019-03-08T17:06:30.634Z,5.27
2019-03-08T17:10:49.216Z,10.47
2019-03-08T17:14:55.420Z,7.70
2019-03-08T17:19:01.317Z,11.73
2019-03-08T17:23:04.137Z,7.33
2019-03-08T17:27:04.697Z,15.90
2019-03-08T17:31:04.945Z,14.53
2019-03-08T17:35:09.047Z,11.00
2019-03-08T17:39:20.109Z,7.20
2019-03-08T17:43:20.663Z,6.80
2019-03-08T17:47:23.723Z,10.90
2019-03-08T17:51:38.687Z,10.03
2019-03-08T17:55:38.870Z,6.90
2019-03-08T17:59:43.775Z,7.33
2019-03-08T18:04:02.247Z,5.90
2019-03-08T18:08:14.335Z,7.97
2019-03-08T18:12:30.641Z,14.27
2019-03-08T18:16:43.534Z,6.57
2019-03-08T18:21:01.825Z,11.80
2019-03-08T18:25:05.337Z,12.60
2019-03-08T18:29:05.580Z,7.97
2019-03-08T18:33:22.313Z,8.17
2019-03-08T18:37:25.513Z,4.90
2019-03-08T18:41:31.921Z,6.63
2019-03-08T18:45:48.094Z,7.83
2019-03-08T18:50:04.779Z,5.67
2019-03-08T18:54:21.683Z,5.03
2019-03-08T18:58:36.892Z,11.63
2019-03-08T19:02:46.911Z,7.60
2019-03-08T19:06:56.227Z,6.97
2019-03-08T19:11:12.968Z,7.57
2019-03-08T19:15:20.521Z,9.57
2019-03-08T19:19:37.595Z,8.30
2019-03-08T19:23:38.162Z,4.37
2019-03-08T19:27:44.487Z,7.53
2019-03-08T19:31:45.357Z,8.30
2019-03-08T19:36:02.073Z,5.37
2019-03-08T19:40:02.319Z,14.93
2019-03-08T19:44:02.536Z,8.80
2019-03-08T19:48:11.677Z,7.77
2019-03-08T19:52:15.320Z,11.73
2019-03-08T19:56:15.882Z,9.43
2019-03-08T20:00:27.735Z,4.37
2019-03-08T20:04:36.970Z,9.03
2019-03-08T20:08:44.820Z,9.27
2019-03-08T20:12:45.268Z,11.80
2019-03-08T20:16:48.066Z,13.10
2019-03-08T20:25:10.081Z,11.83
2019-03-08T20:29:16.440Z,9.73
2019-03-08T20:33:35.182Z,10.23
2019-03-08T20:37:52.072Z,13.17
2019-03-08T20:41:56.963Z,9.43
2019-03-08T20:46:06.136Z,15.33
2019-03-08T20:50:07.722Z,11.10
2019-03-08T20:54:09.985Z,11.53
2019-03-08T20:58:08.709Z,10.67
2019-03-08T21:02:07.784Z,8.63
2019-03-08T21:06:11.982Z,14.20
2019-03-08T21:10:11.054Z,9.70
2019-03-08T21:14:09.643Z,6.53
2019-03-08T21:18:08.702Z,9.10
2019-03-08T21:22:07.273Z,14.93
2019-03-08T21:26:07.807Z,9.53
2019-03-08T21:30:15.080Z,13.90
2019-03-08T21:34:15.598Z,6.17
2019-03-08T21:38:14.190Z,10.03
2019-03-08T21:42:12.841Z,10.57
2019-03-08T21:46:11.440Z,13.40
2019-03-08T21:50:16.963Z,10.83
2019-03-08T21:54:15.561Z,10.87
2019-03-08T21:58:14.155Z,8.63
2019-03-08T22:02:12.721Z,12.93
2019-03-08T22:06:11.372Z,14.27
2019-03-08T22:10:14.172Z,11.83
2019-03-08T22:14:14.433Z,6.87
2019-03-08T22:18:13.430Z,10.73
2019-03-08T22:22:12.088Z,14.73
2019-03-08T22:26:12.349Z,10.83
2019-03-08T22:30:20.043Z,8.20
2019-03-08T22:34:18.649Z,11.77
2019-03-08T22:38:17.642Z,14.73
2019-03-08T22:42:16.206Z,15.40
2019-03-08T22:46:14.982Z,11.70
2019-03-08T22:50:14.999Z,13.47
2019-03-08T22:54:13.686Z,12.77
2019-03-08T22:58:34.523Z,9.93
2019-03-08T23:02:33.067Z,11.50
2019-03-08T23:06:31.742Z,11.80
2019-03-08T23:10:30.346Z,9.50
2019-03-08T23:14:29.216Z,7.73
2019-03-08T23:18:27.795Z,11.23
2019-03-08T23:22:28.199Z,9.27
2019-03-08T23:26:27.841Z,8.43
2019-03-08T23:30:27.414Z,12.10
2019-03-08T23:34:25.979Z,13.87
2019-03-08T23:38:26.656Z,8.67
2019-03-08T23:42:25.186Z,15.37
2019-03-08T23:46:24.336Z,12.90
2019-03-08T23:50:39.912Z,13.23
2019-03-08T23:54:38.455Z,12.83
2019-03-08T23:58:41.738Z,8.20
